createdAt,value
2019-04-28T00:01:40.587Z,8.19
2019-04-28T00:03:38.084Z,8.19
2019-04-28T00:05:38.170Z,8.13
2019-04-28T00:07:38.141Z,8.19
2019-04-28T00:09:38.141Z,8.13
2019-04-28T00:10:55.078Z,8.13
2019-04-28T00:11:38.119Z,8.13
2019-04-28T00:13:38.113Z,8.13
2019-04-28T00:15:38.155Z,8.06
2019-04-28T00:17:38.152Z,8.06
2019-04-28T00:19:38.111Z,8.06
2019-04-28T00:21:38.096Z,8.06
2019-04-28T00:23:38.100Z,8
2019-04-28T00:25:38.093Z,8
2019-04-28T00:25:55.001Z,8
2019-04-28T00:27:38.079Z,8
2019-04-28T00:29:40.954Z,8
2019-04-28T00:31:38.110Z,8
2019-04-28T00:33:38.989Z,7.94
2019-04-28T00:35:38.087Z,7.94
2019-04-28T00:37:38.086Z,7.94
2019-04-28T00:39:38.082Z,7.94
2019-04-28T00:40:55.074Z,7.94
2019-04-28T00:41:38.093Z,7.94
2019-04-28T00:43:38.072Z,7.94
2019-04-28T00:45:38.067Z,7.94
2019-04-28T00:47:38.075Z,7.88
2019-04-28T00:49:38.097Z,7.88
2019-04-28T00:51:38.103Z,7.88
2019-04-28T00:53:40.375Z,7.88
2019-04-28T00:55:38.041Z,7.88
2019-04-28T00:55:55.078Z,7.88
2019-04-28T00:57:38.081Z,7.81
2019-04-28T00:59:50.864Z,7.81
2019-04-28T01:01:38.092Z,7.81
2019-04-28T01:03:38.084Z,7.81
2019-04-28T01:05:38.095Z,7.81
2019-04-28T01:07:38.087Z,7.81
2019-04-28T01:09:38.089Z,7.75
2019-04-28T01:10:55.040Z,7.75
2019-04-28T01:11:41.216Z,7.75
2019-04-28T01:13:38.047Z,7.69
2019-04-28T01:15:39.577Z,7.69
2019-04-28T01:17:39.700Z,7.69
2019-04-28T01:19:39.362Z,7.69
2019-04-28T01:21:38.107Z,7.69
2019-04-28T01:23:38.080Z,7.63
2019-04-28T01:25:39.894Z,7.63
2019-04-28T01:25:55.020Z,7.63
2019-04-28T01:27:38.108Z,7.63
2019-04-28T01:29:38.089Z,7.56
2019-04-28T01:31:39.603Z,7.56
2019-04-28T01:33:40.628Z,7.56
2019-04-28T01:35:39.635Z,7.56
2019-04-28T01:37:38.071Z,7.56
2019-04-28T01:39:39.581Z,7.5
2019-04-28T01:40:55.049Z,7.5
2019-04-28T01:41:39.652Z,7.5
2019-04-28T01:43:38.053Z,7.5
2019-04-28T01:45:43.046Z,7.5
2019-04-28T01:47:38.089Z,7.5
2019-04-28T01:49:38.095Z,7.5
2019-04-28T01:51:38.965Z,7.44
2019-04-28T01:53:39.551Z,7.44
2019-04-28T01:55:39.304Z,7.44
2019-04-28T01:55:55.006Z,7.44
2019-04-28T01:57:39.716Z,7.44
2019-04-28T01:59:39.721Z,7.44
2019-04-28T02:01:39.810Z,7.44
2019-04-28T02:03:38.040Z,7.44
2019-04-28T02:05:38.112Z,7.38
2019-04-28T02:07:38.090Z,7.38
2019-04-28T02:09:39.519Z,7.38
2019-04-28T02:10:55.059Z,7.38
2019-04-28T02:11:39.121Z,7.38
2019-04-28T02:13:39.666Z,7.38
2019-04-28T02:15:39.871Z,7.38
2019-04-28T02:17:39.612Z,7.38
2019-04-28T02:19:38.098Z,7.38
2019-04-28T02:21:39.534Z,7.38
2019-04-28T02:23:39.665Z,7.38
2019-04-28T02:25:39.714Z,7.38
2019-04-28T02:25:56.742Z,7.38
2019-04-28T02:27:39.855Z,7.38
2019-04-28T02:29:41.248Z,7.38
2019-04-28T02:31:43.098Z,7.38
2019-04-28T02:33:40.099Z,7.38
2019-04-28T02:35:43.144Z,7.38
2019-04-28T02:37:40.249Z,7.38
2019-04-28T02:39:40.492Z,7.38
2019-04-28T02:40:55.002Z,7.31
2019-04-28T02:41:40.926Z,7.31
2019-04-28T02:43:40.325Z,7.31
2019-04-28T02:45:40.513Z,7.31
2019-04-28T02:47:38.087Z,7.31
2019-04-28T02:49:40.173Z,7.31
2019-04-28T02:51:40.427Z,7.31
2019-04-28T02:53:40.558Z,7.31
2019-04-28T02:55:38.080Z,7.31
2019-04-28T02:55:55.040Z,7.31
2019-04-28T02:57:40.279Z,7.31
2019-04-28T02:59:40.811Z,7.31
2019-04-28T03:01:40.658Z,7.31
2019-04-28T03:03:40.517Z,7.31
2019-04-28T03:05:40.923Z,7.31
2019-04-28T03:07:38.091Z,7.31
2019-04-28T03:09:40.104Z,7.31
2019-04-28T03:10:55.044Z,7.25
2019-04-28T03:11:38.094Z,7.25
2019-04-28T03:13:40.562Z,7.19
2019-04-28T03:15:38.041Z,7.19
2019-04-28T03:17:40.558Z,7.13
2019-04-28T03:19:41.238Z,7.13
2019-04-28T03:21:38.083Z,7.06
2019-04-28T03:23:40.269Z,7
2019-04-28T03:25:40.687Z,6.94
2019-04-28T03:25:55.035Z,6.94
2019-04-28T03:27:40.250Z,6.94
2019-04-28T03:29:40.170Z,6.88
2019-04-28T03:32:03.447Z,6.88
2019-04-28T03:33:43.251Z,6.81
2019-04-28T03:35:38.089Z,6.81
2019-04-28T03:37:38.093Z,6.75
2019-04-28T03:39:40.433Z,6.75
2019-04-28T03:40:55.043Z,6.75
2019-04-28T03:41:40.265Z,6.75
2019-04-28T03:43:40.556Z,6.75
2019-04-28T03:45:40.919Z,6.75
2019-04-28T03:47:40.343Z,6.75
2019-04-28T03:49:40.569Z,6.75
2019-04-28T03:51:40.503Z,6.75
2019-04-28T03:53:40.693Z,6.75
2019-04-28T03:55:38.187Z,6.75
2019-04-28T03:55:55.007Z,6.75
2019-04-28T03:57:40.919Z,6.75
2019-04-28T03:59:41.202Z,6.75
2019-04-28T04:01:52.795Z,6.75
2019-04-28T04:03:38.148Z,6.75
2019-04-28T04:05:40.264Z,6.69
2019-04-28T04:07:42.596Z,6.75
2019-04-28T04:09:38.097Z,6.69
2019-04-28T04:10:55.062Z,6.69
2019-04-28T04:11:48.057Z,6.69
2019-04-28T04:13:38.097Z,6.69
2019-04-28T04:15:38.106Z,6.69
2019-04-28T04:17:41.247Z,6.63
2019-04-28T04:19:40.591Z,6.56
2019-04-28T04:21:40.385Z,6.56
2019-04-28T04:23:40.409Z,6.56
2019-04-28T04:25:38.095Z,6.56
2019-04-28T04:25:55.045Z,6.5
2019-04-28T04:27:40.575Z,6.5
2019-04-28T04:29:41.137Z,6.56
2019-04-28T04:31:38.084Z,6.56
2019-04-28T04:33:40.620Z,6.5
2019-04-28T04:35:38.099Z,6.56
2019-04-28T04:37:40.255Z,6.56
2019-04-28T04:39:40.435Z,6.56
2019-04-28T04:40:55.041Z,6.5
2019-04-28T04:41:40.830Z,6.56
2019-04-28T04:43:37.992Z,6.56
2019-04-28T04:45:40.379Z,6.56
2019-04-28T04:47:40.439Z,6.56
2019-04-28T04:49:40.233Z,6.56
2019-04-28T04:51:40.692Z,6.56
2019-04-28T04:53:40.490Z,6.63
2019-04-28T04:55:40.453Z,6.63
2019-04-28T04:55:55.041Z,6.63
2019-04-28T04:57:44.181Z,6.69
2019-04-28T04:59:39.902Z,6.69
2019-04-28T05:01:40.349Z,6.69
2019-04-28T05:03:39.678Z,6.75
2019-04-28T05:05:38.094Z,6.75
2019-04-28T05:07:39.592Z,6.75
2019-04-28T05:09:39.482Z,6.75
2019-04-28T05:10:55.069Z,6.75
2019-04-28T05:11:39.732Z,6.75
2019-04-28T05:13:39.889Z,6.75
2019-04-28T05:15:39.569Z,6.75
2019-04-28T05:17:39.998Z,6.75
2019-04-28T05:19:39.958Z,6.69
2019-04-28T05:21:40.068Z,6.69
2019-04-28T05:23:39.961Z,6.69
2019-04-28T05:25:39.547Z,6.69
2019-04-28T05:25:55.037Z,6.69
2019-04-28T05:27:39.892Z,6.63
2019-04-28T05:29:39.749Z,6.69
2019-04-28T05:31:39.976Z,6.75
2019-04-28T05:33:39.543Z,6.75
2019-04-28T05:35:39.607Z,6.75
2019-04-28T05:37:38.112Z,6.81
2019-04-28T05:39:39.966Z,6.81
2019-04-28T05:40:54.978Z,6.81
2019-04-28T05:41:43.112Z,6.75
2019-04-28T05:43:38.078Z,6.75
2019-04-28T05:45:39.654Z,6.81
2019-04-28T05:47:38.110Z,6.88
2019-04-28T05:49:39.676Z,6.94
2019-04-28T05:51:40.041Z,6.94
2019-04-28T05:53:39.917Z,6.94
2019-04-28T05:55:39.323Z,7.06
2019-04-28T05:55:55.118Z,7.06
2019-04-28T05:57:39.743Z,7.06
2019-04-28T05:59:39.906Z,7.13
2019-04-28T06:01:38.066Z,7.06
2019-04-28T06:03:38.114Z,7.06
2019-04-28T06:05:39.429Z,7.06
2019-04-28T06:07:38.134Z,7.19
2019-04-28T06:09:39.660Z,7.31
2019-04-28T06:10:55.051Z,7.44
2019-04-28T06:11:39.755Z,7.5
2019-04-28T06:13:40.003Z,7.63
2019-04-28T06:15:39.646Z,7.69
2019-04-28T06:17:39.671Z,7.69
2019-04-28T06:19:40.098Z,7.63
2019-04-28T06:21:38.078Z,7.56
2019-04-28T06:23:38.115Z,7.69
2019-04-28T06:25:38.950Z,7.69
2019-04-28T06:25:55.078Z,7.69
2019-04-28T06:27:38.090Z,7.81
2019-04-28T06:29:38.344Z,7.81
2019-04-28T06:31:38.118Z,7.69
2019-04-28T06:33:38.114Z,7.75
2019-04-28T06:35:38.071Z,7.75
2019-04-28T06:37:38.113Z,7.81
2019-04-28T06:39:38.079Z,7.75
2019-04-28T06:40:54.976Z,7.69
2019-04-28T06:41:38.101Z,7.69
2019-04-28T06:43:38.108Z,7.69
2019-04-28T06:45:48.153Z,7.56
2019-04-28T06:47:38.107Z,7.5
2019-04-28T06:49:38.112Z,7.56
2019-04-28T06:51:38.016Z,7.63
2019-04-28T06:53:38.103Z,7.69
2019-04-28T06:55:38.118Z,7.75
2019-04-28T06:55:54.976Z,7.81
2019-04-28T06:57:38.090Z,7.75
2019-04-28T06:59:38.149Z,7.69
2019-04-28T07:01:38.095Z,7.69
2019-04-28T07:03:38.105Z,7.56
2019-04-28T07:05:38.106Z,7.56
2019-04-28T07:07:38.193Z,7.69
2019-04-28T07:09:38.120Z,7.81
2019-04-28T07:10:55.068Z,7.81
2019-04-28T07:11:38.371Z,7.88
2019-04-28T07:13:38.108Z,7.94
2019-04-28T07:15:38.082Z,7.94
2019-04-28T07:17:38.091Z,7.69
2019-04-28T07:19:38.194Z,7.63
2019-04-28T07:21:38.102Z,7.69
2019-04-28T07:23:41.237Z,7.69
2019-04-28T07:25:38.110Z,7.69
2019-04-28T07:25:55.020Z,7.75
2019-04-28T07:27:38.120Z,7.81
2019-04-28T07:29:38.108Z,7.81
2019-04-28T07:31:38.111Z,7.88
2019-04-28T07:33:38.105Z,7.88
2019-04-28T07:35:38.100Z,7.94
2019-04-28T07:37:38.134Z,7.88
2019-04-28T07:39:38.103Z,7.94
2019-04-28T07:40:55.069Z,7.88
2019-04-28T07:41:38.069Z,7.94
2019-04-28T07:43:38.135Z,7.81
2019-04-28T07:45:39.858Z,7.94
2019-04-28T07:47:38.115Z,8
2019-04-28T07:49:38.110Z,8.13
2019-04-28T07:51:38.037Z,8.19
2019-04-28T07:53:38.105Z,8.25
2019-04-28T07:55:38.126Z,8.25
2019-04-28T07:55:55.021Z,8.19
2019-04-28T07:57:38.109Z,8.19
2019-04-28T07:59:40.415Z,8.19
2019-04-28T08:01:39.382Z,8.13
2019-04-28T08:03:48.671Z,8.06
2019-04-28T08:05:38.084Z,8
2019-04-28T08:07:38.098Z,7.88
2019-04-28T08:09:38.184Z,7.88
2019-04-28T08:10:55.026Z,7.75
2019-04-28T08:11:38.113Z,7.75
2019-04-28T08:13:43.106Z,7.81
2019-04-28T08:15:38.123Z,7.69
2019-04-28T08:17:38.085Z,7.75
2019-04-28T08:19:38.110Z,7.75
2019-04-28T08:21:38.121Z,7.75
2019-04-28T08:23:46.835Z,7.56
2019-04-28T08:25:38.009Z,7.56
2019-04-28T08:25:55.049Z,7.56
2019-04-28T08:27:38.196Z,7.5
2019-04-28T08:29:38.071Z,7.5
2019-04-28T08:31:38.115Z,7.56
2019-04-28T08:33:38.021Z,7.5
2019-04-28T08:35:38.152Z,7.56
2019-04-28T08:37:38.098Z,7.56
2019-04-28T08:39:38.069Z,7.63
2019-04-28T08:40:55.075Z,7.63
2019-04-28T08:41:38.047Z,7.69
2019-04-28T08:43:38.431Z,7.75
2019-04-28T08:45:38.099Z,7.81
2019-04-28T08:47:38.985Z,7.88
2019-04-28T08:49:38.105Z,7.88
2019-04-28T08:51:38.171Z,7.88
2019-04-28T08:53:38.094Z,7.88
2019-04-28T08:55:38.111Z,8
2019-04-28T08:55:55.010Z,8
2019-04-28T08:57:38.070Z,8.25
2019-04-28T08:59:38.059Z,8.31
2019-04-28T09:01:38.044Z,8.56
2019-04-28T09:03:38.996Z,8.63
2019-04-28T09:05:38.102Z,8.94
2019-04-28T09:07:38.213Z,9
2019-04-28T09:09:38.114Z,8.94
2019-04-28T09:10:55.052Z,9.13
2019-04-28T09:13:38.139Z,9.19
2019-04-28T09:15:38.050Z,9.19
2019-04-28T09:17:41.673Z,9.13
2019-04-28T09:19:38.083Z,8.88
2019-04-28T09:21:38.402Z,8.81
2019-04-28T09:23:38.079Z,8.5
2019-04-28T09:25:38.202Z,8.38
2019-04-28T09:25:56.357Z,8.38
2019-04-28T09:27:38.124Z,8.31
2019-04-28T09:29:38.058Z,8.13
2019-04-28T09:31:38.182Z,8.13
2019-04-28T09:33:38.050Z,8.13
2019-04-28T09:35:38.995Z,8.06
2019-04-28T09:37:38.108Z,7.94
2019-04-28T09:39:38.246Z,7.88
2019-04-28T09:40:55.009Z,7.81
2019-04-28T09:41:37.985Z,7.88
2019-04-28T09:43:37.966Z,7.94
2019-04-28T09:45:38.004Z,8.13
2019-04-28T09:47:38.110Z,8.25
2019-04-28T09:49:38.140Z,8.31
2019-04-28T09:51:38.284Z,8.31
2019-04-28T09:53:38.171Z,8.44
2019-04-28T09:55:38.954Z,8.44
2019-04-28T09:55:55.031Z,8.44
2019-04-28T09:57:38.106Z,8.38
2019-04-28T09:59:38.115Z,8.63
2019-04-28T10:01:38.103Z,8.75
2019-04-28T10:03:38.115Z,8.75
2019-04-28T10:05:38.107Z,8.69
2019-04-28T10:07:38.094Z,9
2019-04-28T10:09:38.090Z,9.06
2019-04-28T10:10:55.229Z,9
2019-04-28T10:11:38.208Z,9
2019-04-28T10:13:38.129Z,9.06
2019-04-28T10:15:38.106Z,9
2019-04-28T10:17:38.990Z,9.06
2019-04-28T10:19:38.115Z,8.88
2019-04-28T10:21:38.265Z,8.75
2019-04-28T10:23:38.121Z,8.88
2019-04-28T10:25:38.074Z,8.81
2019-04-28T10:25:55.141Z,8.75
2019-04-28T10:27:38.111Z,8.69
2019-04-28T10:29:38.102Z,8.75
2019-04-28T10:31:38.123Z,8.94
2019-04-28T10:33:38.122Z,9.13
2019-04-28T10:35:38.098Z,9.25
2019-04-28T10:37:38.105Z,9.25
2019-04-28T10:39:38.031Z,9.56
2019-04-28T10:40:55.067Z,9.63
2019-04-28T10:41:38.097Z,9.56
2019-04-28T10:43:38.108Z,9.88
2019-04-28T10:45:38.075Z,10.25
2019-04-28T10:47:38.120Z,10.44
2019-04-28T10:49:38.139Z,10.5
2019-04-28T10:51:38.109Z,10.81
2019-04-28T10:53:38.206Z,10.31
2019-04-28T10:55:38.093Z,10.5
2019-04-28T10:55:54.949Z,10.56
2019-04-28T10:57:38.124Z,10.38
2019-04-28T10:59:38.119Z,10.25
2019-04-28T11:01:38.112Z,10.13
2019-04-28T11:03:38.076Z,10.06
2019-04-28T11:05:38.066Z,10.06
2019-04-28T11:07:38.136Z,10.06
2019-04-28T11:09:38.083Z,10.06
2019-04-28T11:10:55.050Z,10.13
2019-04-28T11:11:38.370Z,10.19
2019-04-28T11:13:38.190Z,10.38
2019-04-28T11:15:38.060Z,10.5
2019-04-28T11:17:38.126Z,10.44
2019-04-28T11:19:38.130Z,10.44
2019-04-28T11:21:38.112Z,10.63
2019-04-28T11:23:38.104Z,10.69
2019-04-28T11:25:38.058Z,10.81
2019-04-28T11:25:54.970Z,10.88
2019-04-28T11:27:38.090Z,10.81
2019-04-28T11:29:38.112Z,10.5
2019-04-28T11:31:38.065Z,10.81
2019-04-28T11:33:38.973Z,10.75
2019-04-28T11:35:38.088Z,10.88
2019-04-28T11:37:38.112Z,10.94
2019-04-28T11:39:38.095Z,10.75
2019-04-28T11:40:55.028Z,10.81
2019-04-28T11:41:38.048Z,10.75
2019-04-28T11:43:38.090Z,10.44
2019-04-28T11:45:38.106Z,10.5
2019-04-28T11:47:38.094Z,10.69
2019-04-28T11:49:38.101Z,10.69
2019-04-28T11:51:38.103Z,10.63
2019-04-28T11:53:38.185Z,10.31
2019-04-28T11:55:38.128Z,10.44
2019-04-28T11:55:54.972Z,10.38
2019-04-28T11:57:38.093Z,10.5
2019-04-28T11:59:38.320Z,10.56
2019-04-28T12:01:38.157Z,10.69
2019-04-28T12:03:38.046Z,10.63
2019-04-28T12:05:38.476Z,10.81
2019-04-28T12:07:38.204Z,11
2019-04-28T12:09:38.119Z,11.13
2019-04-28T12:10:55.082Z,10.94
2019-04-28T12:11:38.086Z,11
2019-04-28T12:13:38.095Z,10.75
2019-04-28T12:15:37.989Z,10.5
2019-04-28T12:17:38.144Z,10.38
2019-04-28T12:19:38.113Z,10.13
2019-04-28T12:21:38.123Z,10.38
2019-04-28T12:23:38.075Z,10.38
2019-04-28T12:25:38.110Z,10.5
2019-04-28T12:25:54.931Z,10.5
2019-04-28T12:27:39.006Z,10.25
2019-04-28T12:29:38.088Z,10.5
2019-04-28T12:31:38.181Z,10.69
2019-04-28T12:33:38.102Z,11
2019-04-28T12:35:47.449Z,11.13
2019-04-28T12:37:38.097Z,11.25
2019-04-28T12:39:38.947Z,11.69
2019-04-28T12:40:55.128Z,11.75
2019-04-28T12:41:38.098Z,11.69
2019-04-28T12:43:38.049Z,11.63
2019-04-28T12:45:38.103Z,12
2019-04-28T12:47:38.133Z,11.75
2019-04-28T12:49:38.183Z,12
2019-04-28T12:51:38.097Z,12.19
2019-04-28T12:53:38.117Z,12.5
2019-04-28T12:55:38.114Z,12.56
2019-04-28T12:55:55.049Z,12.63
2019-04-28T12:57:38.127Z,12.56
2019-04-28T12:59:38.149Z,12.31
2019-04-28T13:01:38.156Z,11.94
2019-04-28T13:03:38.156Z,11.88
2019-04-28T13:05:38.125Z,11.69
2019-04-28T13:07:38.114Z,11.81
2019-04-28T13:09:38.201Z,12.25
2019-04-28T13:10:55.139Z,12.31
2019-04-28T13:11:38.103Z,12.56
2019-04-28T13:13:38.061Z,12.75
2019-04-28T13:15:38.063Z,12.69
2019-04-28T13:17:38.107Z,12.5
2019-04-28T13:19:38.127Z,12.81
2019-04-28T13:21:39.007Z,12.75
2019-04-28T13:23:38.098Z,12.44
2019-04-28T13:25:38.058Z,12.44
2019-04-28T13:25:55.105Z,12.5
2019-04-28T13:27:38.101Z,12.25
2019-04-28T13:29:38.054Z,12.63
2019-04-28T13:31:38.054Z,12.63
2019-04-28T13:33:38.080Z,12.56
2019-04-28T13:35:38.150Z,12.75
2019-04-28T13:37:38.174Z,12.75
2019-04-28T13:39:38.227Z,12.94
2019-04-28T13:40:55.048Z,13
2019-04-28T13:41:38.112Z,13.06
2019-04-28T13:43:38.163Z,12.81
2019-04-28T13:45:38.083Z,12.81
2019-04-28T13:47:38.207Z,12.69
2019-04-28T13:49:38.110Z,12.75
2019-04-28T13:51:38.060Z,12.5
2019-04-28T13:53:38.091Z,12.75
2019-04-28T13:55:38.133Z,12.63
2019-04-28T13:55:54.993Z,12.56
2019-04-28T13:57:38.106Z,12.94
2019-04-28T13:59:38.186Z,13.19
2019-04-28T14:01:38.105Z,13.19
2019-04-28T14:03:38.145Z,13.88
2019-04-28T14:05:38.144Z,14.38
2019-04-28T14:07:38.068Z,14.63
2019-04-28T14:09:38.534Z,15.44
2019-04-28T14:10:55.045Z,15.44
2019-04-28T14:11:38.118Z,15.19
2019-04-28T14:13:37.978Z,14.63
2019-04-28T14:15:38.112Z,14.5
2019-04-28T14:17:38.063Z,15.25
2019-04-28T14:19:38.093Z,15.5
2019-04-28T14:21:38.097Z,15.19
2019-04-28T14:23:38.119Z,15.56
2019-04-28T14:25:38.140Z,15.44
2019-04-28T14:25:55.112Z,15.44
2019-04-28T14:27:38.037Z,15.94
2019-04-28T14:29:38.110Z,16.31
2019-04-28T14:31:38.994Z,16.69
2019-04-28T14:33:38.215Z,15.63
2019-04-28T14:35:38.053Z,16.31
2019-04-28T14:37:38.122Z,16.13
2019-04-28T14:39:39.107Z,15.75
2019-04-28T14:40:55.041Z,15.5
2019-04-28T14:41:38.098Z,15.69
2019-04-28T14:43:38.117Z,15.63
2019-04-28T14:45:38.208Z,16
2019-04-28T14:47:38.116Z,15.56
2019-04-28T14:49:38.129Z,16.25
2019-04-28T14:51:38.068Z,16.81
2019-04-28T14:53:38.170Z,17.31
2019-04-28T14:55:38.090Z,16.81
2019-04-28T14:55:55.022Z,16.56
2019-04-28T14:57:38.060Z,16.19
2019-04-28T14:59:38.071Z,15.75
2019-04-28T15:01:38.165Z,16.06
2019-04-28T15:03:38.094Z,16.56
2019-04-28T15:05:39.260Z,16.31
2019-04-28T15:07:38.132Z,16.75
2019-04-28T15:09:38.961Z,17.06
2019-04-28T15:10:55.167Z,16.94
2019-04-28T15:11:38.162Z,16.81
2019-04-28T15:13:38.120Z,15.69
2019-04-28T15:15:38.152Z,15.44
2019-04-28T15:17:38.190Z,16.88
2019-04-28T15:19:38.156Z,17.69
2019-04-28T15:21:38.113Z,18.06
2019-04-28T15:23:38.095Z,18.38
2019-04-28T15:25:38.114Z,18.75
2019-04-28T15:25:55.032Z,18.81
2019-04-28T15:27:38.135Z,19.06
2019-04-28T15:29:38.100Z,18.81
2019-04-28T15:31:38.117Z,18.31
2019-04-28T15:33:38.110Z,18.25
2019-04-28T15:35:38.188Z,17.5
2019-04-28T15:37:38.101Z,16.75
2019-04-28T15:39:38.193Z,16.25
2019-04-28T15:40:54.974Z,16.19
2019-04-28T15:41:38.062Z,16.25
2019-04-28T15:43:38.077Z,15.81
2019-04-28T15:45:38.958Z,15.5
2019-04-28T15:47:38.099Z,15
2019-04-28T15:49:38.051Z,14.75
2019-04-28T15:51:38.100Z,14.69
2019-04-28T15:53:38.106Z,14.25
2019-04-28T15:55:38.081Z,13.94
2019-04-28T15:55:55.062Z,13.94
2019-04-28T15:57:38.094Z,13.94
2019-04-28T15:59:38.099Z,13.88
2019-04-28T16:01:38.116Z,14.06
2019-04-28T16:03:38.988Z,14
2019-04-28T16:05:38.105Z,13.88
2019-04-28T16:07:38.102Z,13.88
2019-04-28T16:09:40.901Z,13.63
2019-04-28T16:10:55.041Z,13.63
2019-04-28T16:11:38.100Z,13.63
2019-04-28T16:13:38.056Z,13.63
2019-04-28T16:15:38.114Z,13.56
2019-04-28T16:17:38.130Z,13.44
2019-04-28T16:19:38.093Z,13.31
2019-04-28T16:21:38.089Z,13.31
2019-04-28T16:23:38.144Z,13.25
2019-04-28T16:25:38.162Z,13.13
2019-04-28T16:25:55.023Z,13.13
2019-04-28T16:27:38.077Z,13.06
2019-04-28T16:29:38.081Z,13.06
2019-04-28T16:31:38.114Z,13
2019-04-28T16:33:38.054Z,12.69
2019-04-28T16:35:38.061Z,12.5
2019-04-28T16:37:38.800Z,12.5
2019-04-28T16:39:39.004Z,12.38
2019-04-28T16:40:55.885Z,12.31
2019-04-28T16:41:38.120Z,12.31
2019-04-28T16:43:38.258Z,12.19
2019-04-28T16:45:38.987Z,12.31
2019-04-28T16:47:38.094Z,12.13
2019-04-28T16:49:38.112Z,12
2019-04-28T16:51:38.108Z,11.88
2019-04-28T16:53:38.136Z,11.81
2019-04-28T16:55:38.139Z,11.81
2019-04-28T16:55:55.050Z,11.81
2019-04-28T16:57:38.085Z,11.81
2019-04-28T16:59:38.029Z,11.75
2019-04-28T17:01:38.100Z,11.63
2019-04-28T17:03:38.097Z,11.69
2019-04-28T17:05:38.194Z,11.69
2019-04-28T17:07:45.988Z,11.69
2019-04-28T17:09:39.216Z,11.56
2019-04-28T17:10:55.083Z,11.56
2019-04-28T17:11:38.208Z,11.5
2019-04-28T17:13:38.111Z,11.5
2019-04-28T17:15:38.166Z,11.38
2019-04-28T17:17:38.067Z,11.25
2019-04-28T17:19:38.060Z,11.19
2019-04-28T17:21:38.113Z,11.06
2019-04-28T17:23:38.108Z,11.19
2019-04-28T17:25:38.145Z,11.19
2019-04-28T17:25:55.134Z,11.19
2019-04-28T17:27:38.202Z,11.06
2019-04-28T17:29:38.143Z,11
2019-04-28T17:31:38.127Z,11
2019-04-28T17:33:38.108Z,11.06
2019-04-28T17:35:38.092Z,11.06
2019-04-28T17:37:38.117Z,11.06
2019-04-28T17:39:38.048Z,10.94
2019-04-28T17:40:55.053Z,10.94
2019-04-28T17:41:38.056Z,10.94
2019-04-28T17:43:38.108Z,10.94
2019-04-28T17:45:38.103Z,10.94
2019-04-28T17:47:38.074Z,11.06
2019-04-28T17:49:38.105Z,11.06
2019-04-28T17:51:38.146Z,11
2019-04-28T17:53:38.156Z,10.94
2019-04-28T17:55:38.127Z,10.81
2019-04-28T17:55:55.048Z,10.81
2019-04-28T17:57:38.235Z,10.81
2019-04-28T17:59:38.104Z,10.75
2019-04-28T18:01:38.110Z,10.63
2019-04-28T18:03:38.106Z,10.56
2019-04-28T18:05:38.182Z,10.5
2019-04-28T18:07:38.063Z,10.5
2019-04-28T18:09:38.132Z,10.5
2019-04-28T18:10:55.047Z,10.5
2019-04-28T18:11:38.117Z,10.5
2019-04-28T18:13:38.119Z,10.44
2019-04-28T18:15:38.095Z,10.38
2019-04-28T18:17:38.119Z,10.31
2019-04-28T18:19:38.121Z,10.31
2019-04-28T18:21:38.119Z,10.38
2019-04-28T18:23:38.053Z,10.31
2019-04-28T18:25:38.125Z,10.25
2019-04-28T18:25:55.112Z,10.25
2019-04-28T18:27:38.122Z,10.19
2019-04-28T18:29:38.128Z,10.13
2019-04-28T18:31:38.113Z,10.13
2019-04-28T18:33:38.066Z,10.06
2019-04-28T18:35:38.113Z,10.13
2019-04-28T18:37:38.047Z,10
2019-04-28T18:39:38.145Z,9.94
2019-04-28T18:40:55.091Z,9.94
2019-04-28T18:41:38.247Z,9.88
2019-04-28T18:43:38.094Z,9.75
2019-04-28T18:45:46.158Z,9.81
2019-04-28T18:47:38.138Z,9.81
2019-04-28T18:49:38.162Z,9.88
2019-04-28T18:51:38.131Z,9.88
2019-04-28T18:53:38.145Z,9.81
2019-04-28T18:55:38.111Z,9.81
2019-04-28T18:55:55.063Z,9.75
2019-04-28T18:57:39.092Z,9.69
2019-04-28T18:59:38.046Z,9.63
2019-04-28T19:01:38.096Z,9.63
2019-04-28T19:03:38.211Z,9.63
2019-04-28T19:05:38.247Z,9.5
2019-04-28T19:07:38.106Z,9.56
2019-04-28T19:09:38.057Z,9.44
2019-04-28T19:10:55.039Z,9.44
2019-04-28T19:11:39.055Z,9.44
2019-04-28T19:13:38.047Z,9.44
2019-04-28T19:15:38.204Z,9.44
2019-04-28T19:17:38.346Z,9.5
2019-04-28T19:19:38.107Z,9.44
2019-04-28T19:21:38.064Z,9.31
2019-04-28T19:23:38.214Z,9.31
2019-04-28T19:25:38.889Z,9.38
2019-04-28T19:25:55.028Z,9.38
2019-04-28T19:27:38.090Z,9.38
2019-04-28T19:29:38.421Z,9.31
2019-04-28T19:31:38.931Z,9.31
2019-04-28T19:33:38.102Z,9.31
2019-04-28T19:35:38.094Z,9.19
2019-04-28T19:37:38.060Z,9.13
2019-04-28T19:39:40.701Z,9.19
2019-04-28T19:40:55.050Z,9.19
2019-04-28T19:41:38.111Z,9.19
2019-04-28T19:43:38.098Z,9.19
2019-04-28T19:45:38.057Z,9.13
2019-04-28T19:47:38.047Z,9.06
2019-04-28T19:49:38.101Z,9.06
2019-04-28T19:51:38.052Z,9.06
2019-04-28T19:53:39.052Z,9
2019-04-28T19:55:38.072Z,9
2019-04-28T19:55:54.977Z,9
2019-04-28T19:57:38.094Z,9
2019-04-28T19:59:38.054Z,9
2019-04-28T20:01:38.305Z,9
2019-04-28T20:03:38.128Z,8.94
2019-04-28T20:05:38.058Z,8.88
2019-04-28T20:07:40.792Z,8.94
2019-04-28T20:09:38.105Z,8.88
2019-04-28T20:10:55.018Z,8.81
2019-04-28T20:11:38.221Z,8.81
2019-04-28T20:13:38.148Z,8.75
2019-04-28T20:15:38.044Z,8.75
2019-04-28T20:17:38.049Z,8.75
2019-04-28T20:19:38.154Z,8.75
2019-04-28T20:21:38.110Z,8.81
2019-04-28T20:23:38.086Z,8.75
2019-04-28T20:25:38.048Z,8.63
2019-04-28T20:25:55.043Z,8.69
2019-04-28T20:27:38.042Z,8.69
2019-04-28T20:29:38.111Z,8.69
2019-04-28T20:31:38.168Z,8.63
2019-04-28T20:33:38.082Z,8.56
2019-04-28T20:35:38.021Z,8.5
2019-04-28T20:37:38.114Z,8.5
2019-04-28T20:39:38.209Z,8.44
2019-04-28T20:40:54.991Z,8.31
2019-04-28T20:41:38.112Z,8.38
2019-04-28T20:43:38.164Z,8.44
2019-04-28T20:45:38.115Z,8.38
2019-04-28T20:47:38.184Z,8.38
2019-04-28T20:49:38.121Z,8.44
2019-04-28T20:51:38.054Z,8.44
2019-04-28T20:53:38.058Z,8.38
2019-04-28T20:55:38.091Z,8.31
2019-04-28T20:55:55.088Z,8.31
2019-04-28T20:57:38.077Z,8.38
2019-04-28T20:59:38.104Z,8.31
2019-04-28T21:01:38.105Z,8.38
2019-04-28T21:03:38.606Z,8.31
2019-04-28T21:05:38.163Z,8.31
2019-04-28T21:07:38.133Z,8.31
2019-04-28T21:09:38.223Z,8.25
2019-04-28T21:10:55.081Z,8.25
2019-04-28T21:11:38.107Z,8.25
2019-04-28T21:13:38.094Z,8.25
2019-04-28T21:15:39.002Z,8.31
2019-04-28T21:17:38.116Z,8.31
2019-04-28T21:19:38.126Z,8.25
2019-04-28T21:21:38.211Z,8.25
2019-04-28T21:23:38.067Z,8.25
2019-04-28T21:25:38.053Z,8.19
2019-04-28T21:25:55.084Z,8.19
2019-04-28T21:27:38.149Z,8.06
2019-04-28T21:29:38.114Z,8
2019-04-28T21:31:38.117Z,7.88
2019-04-28T21:33:38.119Z,7.81
2019-04-28T21:35:37.978Z,7.69
2019-04-28T21:37:38.242Z,7.56
2019-04-28T21:39:38.217Z,7.56
2019-04-28T21:40:55.102Z,7.5
2019-04-28T21:41:38.107Z,7.5
2019-04-28T21:43:38.146Z,7.44
2019-04-28T21:45:38.059Z,7.44
2019-04-28T21:47:38.113Z,7.44
2019-04-28T21:49:38.114Z,7.5
2019-04-28T21:51:38.086Z,7.63
2019-04-28T21:53:38.114Z,7.56
2019-04-28T21:55:38.144Z,7.56
2019-04-28T21:55:55.057Z,7.5
2019-04-28T21:57:38.501Z,7.5
2019-04-28T21:59:38.419Z,7.44
2019-04-28T22:01:38.072Z,7.38
2019-04-28T22:03:38.109Z,7.38
2019-04-28T22:05:38.131Z,7.31
2019-04-28T22:07:38.189Z,7.31
2019-04-28T22:09:38.107Z,7.25
2019-04-28T22:10:55.058Z,7.25
2019-04-28T22:11:38.116Z,7.31
2019-04-28T22:13:39.002Z,7.25
2019-04-28T22:15:38.311Z,7.19
2019-04-28T22:17:39.004Z,7.19
2019-04-28T22:19:38.216Z,7.25
2019-04-28T22:21:39.141Z,7.25
2019-04-28T22:23:38.094Z,7.19
2019-04-28T22:25:38.093Z,7.13
2019-04-28T22:25:55.069Z,7.13
2019-04-28T22:27:38.240Z,7.13
2019-04-28T22:29:38.092Z,7.13
2019-04-28T22:31:38.143Z,7.13
2019-04-28T22:33:38.104Z,7.06
2019-04-28T22:35:38.108Z,6.94
2019-04-28T22:37:38.101Z,6.94
2019-04-28T22:39:38.099Z,6.94
2019-04-28T22:40:55.108Z,6.88
2019-04-28T22:41:38.251Z,6.88
2019-04-28T22:43:38.148Z,6.88
2019-04-28T22:45:38.105Z,6.94
2019-04-28T22:47:38.261Z,6.94
2019-04-28T22:49:38.089Z,6.88
2019-04-28T22:51:38.146Z,6.88
2019-04-28T22:53:38.112Z,6.75
2019-04-28T22:55:38.176Z,6.69
2019-04-28T22:55:55.028Z,6.69
2019-04-28T22:57:38.137Z,6.69
2019-04-28T22:59:38.100Z,6.69
2019-04-28T23:01:38.204Z,6.63
2019-04-28T23:03:38.038Z,6.63
2019-04-28T23:05:38.057Z,6.56
2019-04-28T23:07:38.043Z,6.44
2019-04-28T23:09:38.096Z,6.38
2019-04-28T23:10:55.069Z,6.38
2019-04-28T23:11:38.085Z,6.44
2019-04-28T23:13:38.116Z,6.44
2019-04-28T23:15:39.007Z,6.44
2019-04-28T23:17:38.085Z,6.44
2019-04-28T23:19:38.109Z,6.44
2019-04-28T23:21:38.138Z,6.38
2019-04-28T23:23:38.104Z,6.38
2019-04-28T23:25:38.114Z,6.31
2019-04-28T23:25:54.972Z,6.25